Terminal Aerodrome Forecast
Issued by NWS

Home | Current Version | Previous Version | Text Only | Print | Product List | Glossary On
Versions: 1 2 3 4 5 6 7 8 9 10 11 12 13 14 15 16 17 18 19 20 21 22 23 24 25 26 27
000
FTUS43 KDMX 241133
TAFFOD
TAF
KFOD 241133Z 2412/2512 VRB03KT P6SM SKC
     FM241500 14009KT P6SM SCT150
     FM241800 17010G16KT P6SM FEW050 BKN120
     FM250000 16008KT P6SM VCSH SCT040 BKN150
     FM250800 17013G19KT P6SM VCTS BKN035CB OVC100=

USA.gov is the U.S. government's official web portal to all federal, state and local government web resources and services.